Time;durP1;ratioP1;P1;durP2;ratioP2;P2;SDS_P1;SDS_P2;PMS_P1;PMS_P2;Temp;Humidity;BMP_temperature;BMP_pressure;BME280_temperature;BME280_humidity;BME280_pressure;Samples;Min_cycle;Max_cycle;Signal;HPM_P1;HPM_P2
2023/03/29 00:00:20;;;;;;;1.00;1.00;;;6.00;99.90;;;;;;5003359;28;20049;-77
2023/03/29 00:02:47;;;;;;;1.00;1.00;;;6.00;99.90;;;;;;5000131;28;20393;-77
2023/03/29 00:05:14;;;;;;;0.98;0.98;;;6.10;99.90;;;;;;4996623;28;20073;-77
2023/03/29 00:07:41;;;;;;;0.90;0.90;;;6.10;99.90;;;;;;4997484;28;20042;-76
2023/03/29 00:10:09;;;;;;;1.02;1.02;;;6.10;99.90;;;;;;5001264;28;20041;-77
2023/03/29 00:12:36;;;;;;;0.80;0.80;;;6.00;99.90;;;;;;4987772;28;20107;-77
2023/03/29 00:15:03;;;;;;;0.90;0.90;;;6.10;99.90;;;;;;4996551;28;20041;-77
2023/03/29 00:17:29;;;;;;;0.90;0.90;;;6.10;99.90;;;;;;4999681;28;20119;-76
2023/03/29 00:19:54;;;;;;;0.90;0.90;;;6.00;99.90;;;;;;5000181;28;20111;-76
2023/03/29 00:22:20;;;;;;;0.90;0.90;;;6.10;99.90;;;;;;4995723;28;20045;-77
2023/03/29 00:24:47;;;;;;;0.90;0.90;;;6.10;99.90;;;;;;4998754;28;20041;-77
2023/03/29 00:27:15;;;;;;;1.10;1.10;;;6.00;99.90;;;;;;4997866;28;20109;-77
2023/03/29 00:29:41;;;;;;;0.90;0.90;;;6.00;99.90;;;;;;4995945;28;20057;-77
2023/03/29 00:32:06;;;;;;;1.00;1.00;;;6.00;99.90;;;;;;4998746;28;20038;-76
2023/03/29 00:34:34;;;;;;;0.90;0.90;;;6.00;99.90;;;;;;4999361;28;20037;-77
2023/03/29 00:37:01;;;;;;;0.80;0.80;;;6.00;99.90;;;;;;4999614;28;20045;-77
2023/03/29 00:39:27;;;;;;;0.90;0.90;;;6.00;99.90;;;;;;4996431;28;20055;-76
2023/03/29 00:41:53;;;;;;;0.80;0.80;;;6.00;99.90;;;;;;4995944;28;20119;-76
2023/03/29 00:44:58;;;;;;;0.80;0.80;;;6.00;99.90;;;;;;4995998;28;20433;-76
2023/03/29 00:47:38;;;;;;;0.80;0.80;;;6.00;99.90;;;;;;4997987;28;20532;-77
2023/03/29 00:50:15;;;;;;;1.00;1.00;;;6.00;99.90;;;;;;5013992;28;20073;-76
2023/03/29 00:52:43;;;;;;;0.90;0.90;;;5.90;99.90;;;;;;5030871;28;20057;-76
2023/03/29 00:55:20;;;;;;;1.05;1.05;;;6.00;99.90;;;;;;5010415;28;20216;-76
2023/03/29 00:57:48;;;;;;;0.85;0.85;;;5.90;99.90;;;;;;5013620;28;20104;-76
2023/03/29 01:00:21;;;;;;;0.80;0.80;;;5.90;99.90;;;;;;5014531;28;20211;-77
2023/03/29 01:02:53;;;;;;;0.90;0.90;;;6.00;99.90;;;;;;5010636;28;20133;-77
2023/03/29 01:05:38;;;;;;;0.80;0.80;;;5.90;99.90;;;;;;5011762;28;20443;-76
2023/03/29 01:08:24;;;;;;;0.80;0.80;;;6.00;99.90;;;;;;5013016;28;20431;-76
2023/03/29 01:11:03;;;;;;;0.90;0.90;;;5.90;99.90;;;;;;5014868;28;20049;-76
2023/03/29 01:13:38;;;;;;;0.90;0.90;;;6.00;99.90;;;;;;5015713;28;20066;-76
2023/03/29 01:16:05;;;;;;;0.80;0.80;;;6.00;99.90;;;;;;5011335;28;20054;-76
2023/03/29 01:18:32;;;;;;;0.80;0.80;;;6.00;99.90;;;;;;5016327;28;20095;-76
2023/03/29 01:21:19;;;;;;;0.80;0.80;;;6.00;99.90;;;;;;5013501;28;20576;-77
2023/03/29 01:24:24;;;;;;;0.85;0.85;;;6.00;99.90;;;;;;5031896;28;20052;-77
2023/03/29 01:27:12;;;;;;;0.90;0.90;;;6.10;99.90;;;;;;4984492;28;20054;-76
2023/03/29 01:30:10;;;;;;;0.90;0.90;;;6.00;99.90;;;;;;5013381;28;20081;-77
2023/03/29 01:33:22;;;;;;;0.90;0.90;;;6.00;99.90;;;;;;5001941;28;20776;-76
2023/03/29 01:35:58;;;;;;;0.80;0.80;;;6.00;99.90;;;;;;5007661;28;20061;-77
2023/03/29 01:38:35;;;;;;;0.90;0.90;;;6.00;99.90;;;;;;5012159;28;20056;-76
2023/03/29 01:41:02;;;;;;;0.80;0.80;;;6.10;99.90;;;;;;5026491;28;20439;-76
2023/03/29 01:43:40;;;;;;;0.80;0.80;;;6.10;99.90;;;;;;5014928;28;20188;-76
2023/03/29 01:46:10;;;;;;;0.85;0.85;;;6.10;99.90;;;;;;5010585;28;20064;-76
2023/03/29 01:48:50;;;;;;;0.80;0.80;;;6.10;99.90;;;;;;4995895;28;20044;-77
2023/03/29 01:51:40;;;;;;;0.80;0.80;;;6.10;99.90;;;;;;4996683;28;20057;-77
2023/03/29 01:54:19;;;;;;;0.80;0.80;;;6.00;99.90;;;;;;5011246;28;20087;-77
2023/03/29 01:56:47;;;;;;;0.90;0.90;;;6.00;99.90;;;;;;5012398;28;20319;-76
2023/03/29 01:59:18;;;;;;;0.90;0.90;;;6.00;99.90;;;;;;5015492;28;20669;-76
2023/03/29 02:01:51;;;;;;;0.75;0.75;;;6.10;99.90;;;;;;5011876;28;20049;-77
2023/03/29 02:04:27;;;;;;;0.90;0.90;;;6.00;99.90;;;;;;5011796;28;20041;-77
2023/03/29 02:06:55;;;;;;;0.80;0.80;;;6.10;99.90;;;;;;5013628;28;20042;-76
2023/03/29 02:09:22;;;;;;;0.80;0.80;;;6.00;99.90;;;;;;5015998;28;21314;-76
2023/03/29 02:11:50;;;;;;;0.80;0.80;;;6.00;99.90;;;;;;5011633;28;20604;-76
2023/03/29 02:14:16;;;;;;;0.70;0.70;;;6.00;99.90;;;;;;5012622;28;20065;-76
2023/03/29 02:16:44;;;;;;;0.70;0.70;;;6.00;99.90;;;;;;5013190;28;20110;-77
2023/03/29 02:19:10;;;;;;;0.70;0.70;;;6.00;99.90;;;;;;5013425;28;20053;-76
2023/03/29 02:22:05;;;;;;;0.70;0.70;;;6.10;99.90;;;;;;5010859;28;20419;-77
2023/03/29 02:24:35;;;;;;;0.70;0.70;;;6.00;99.90;;;;;;5009759;28;20065;-76
2023/03/29 02:27:01;;;;;;;0.80;0.80;;;6.00;99.90;;;;;;5010497;28;20050;-77
2023/03/29 02:29:27;;;;;;;0.70;0.70;;;6.10;99.90;;;;;;5014283;28;20390;-76
2023/03/29 02:32:04;;;;;;;0.70;0.70;;;6.00;99.90;;;;;;5013436;28;20037;-76
2023/03/29 02:34:36;;;;;;;0.75;0.75;;;6.00;99.90;;;;;;5023651;28;20793;-77
2023/03/29 02:37:09;;;;;;;0.70;0.70;;;6.10;99.90;;;;;;5011492;28;20053;-76
2023/03/29 02:39:35;;;;;;;0.80;0.80;;;6.10;99.90;;;;;;5015766;28;20053;-77
2023/03/29 02:42:03;;;;;;;0.70;0.70;;;6.10;99.90;;;;;;5014011;28;20065;-77
2023/03/29 02:44:32;;;;;;;0.70;0.70;;;6.10;99.90;;;;;;5013533;28;20044;-76
2023/03/29 02:47:04;;;;;;;0.80;0.80;;;6.10;99.90;;;;;;5015433;28;20053;-76
2023/03/29 02:49:30;;;;;;;0.75;0.75;;;6.00;99.90;;;;;;5030096;28;20054;-76
2023/03/29 02:51:59;;;;;;;0.70;0.70;;;6.10;99.90;;;;;;5015727;28;20046;-77
2023/03/29 02:54:30;;;;;;;0.70;0.70;;;6.10;99.90;;;;;;5009704;28;20049;-76
2023/03/29 02:56:58;;;;;;;0.70;0.70;;;6.10;99.90;;;;;;5011474;28;20478;-76
2023/03/29 02:59:24;;;;;;;0.70;0.70;;;6.10;99.90;;;;;;5013974;28;20149;-76
2023/03/29 03:01:51;;;;;;;0.80;0.80;;;6.10;99.90;;;;;;5022381;28;20707;-76
2023/03/29 03:04:19;;;;;;;0.80;0.80;;;6.10;99.90;;;;;;5014355;28;20077;-76
2023/03/29 03:06:45;;;;;;;0.70;0.70;;;6.10;99.90;;;;;;5019399;28;20580;-77
2023/03/29 03:09:11;;;;;;;0.70;0.70;;;6.10;99.90;;;;;;5016381;28;20797;-77
2023/03/29 03:11:37;;;;;;;0.60;0.60;;;6.10;99.90;;;;;;5017819;28;20128;-76
2023/03/29 03:14:03;;;;;;;0.70;0.70;;;6.10;99.90;;;;;;5017537;28;20136;-76
2023/03/29 03:16:28;;;;;;;0.70;0.70;;;6.20;99.90;;;;;;5016803;28;20045;-76
2023/03/29 03:18:54;;;;;;;0.70;0.70;;;6.10;99.90;;;;;;5017586;28;20044;-77
2023/03/29 03:21:21;;;;;;;0.80;0.80;;;6.10;99.90;;;;;;5018382;28;20042;-77
2023/03/29 03:23:47;;;;;;;0.70;0.70;;;6.10;99.90;;;;;;5016207;28;20069;-76
2023/03/29 03:26:14;;;;;;;0.70;0.70;;;6.20;99.90;;;;;;5015378;28;20193;-77
2023/03/29 03:28:40;;;;;;;0.70;0.70;;;6.10;99.90;;;;;;5016787;28;20611;-76
2023/03/29 03:31:06;;;;;;;0.70;0.70;;;6.20;99.90;;;;;;5016742;28;20053;-77
2023/03/29 03:33:32;;;;;;;0.77;0.77;;;6.20;99.90;;;;;;5028469;28;20050;-77
2023/03/29 03:36:01;;;;;;;0.65;0.65;;;6.20;99.90;;;;;;5015650;28;20045;-76
2023/03/29 03:38:28;;;;;;;0.77;0.77;;;6.20;99.90;;;;;;5018444;28;20053;-77
2023/03/29 03:40:55;;;;;;;0.80;0.80;;;6.20;99.90;;;;;;5018202;28;20442;-77
2023/03/29 03:43:21;;;;;;;0.70;0.70;;;6.20;99.90;;;;;;5014889;28;20501;-77
2023/03/29 03:45:47;;;;;;;0.73;0.73;;;6.20;99.90;;;;;;5015579;28;20042;-76
2023/03/29 03:48:13;;;;;;;0.70;0.70;;;6.20;99.90;;;;;;5018064;28;20041;-77
2023/03/29 03:50:39;;;;;;;0.70;0.70;;;6.20;99.90;;;;;;5029783;28;20052;-77
2023/03/29 03:53:06;;;;;;;0.70;0.70;;;6.20;99.90;;;;;;5018196;28;20041;-77
2023/03/29 03:55:32;;;;;;;0.88;0.88;;;6.20;99.90;;;;;;5017090;28;20621;-76
2023/03/29 03:57:58;;;;;;;0.70;0.70;;;6.30;99.90;;;;;;5018868;28;20041;-76
2023/03/29 04:00:24;;;;;;;0.70;0.70;;;6.30;99.90;;;;;;5018934;28;20054;-76
2023/03/29 04:02:53;;;;;;;0.70;0.70;;;6.30;99.90;;;;;;5005624;28;20045;-76
2023/03/29 04:05:19;;;;;;;0.60;0.60;;;6.30;99.90;;;;;;5013580;28;20056;-76
2023/03/29 04:07:45;;;;;;;0.70;0.70;;;6.30;99.90;;;;;;5018467;28;20084;-76
2023/03/29 04:10:11;;;;;;;0.77;0.77;;;6.30;99.90;;;;;;5016224;28;20132;-77
2023/03/29 04:12:38;;;;;;;0.70;0.70;;;6.30;99.90;;;;;;5016055;28;20363;-76
2023/03/29 04:15:05;;;;;;;0.60;0.60;;;6.30;99.90;;;;;;5013013;28;20509;-76
2023/03/29 04:17:30;;;;;;;0.70;0.70;;;6.30;99.90;;;;;;5017520;28;20132;-77
2023/03/29 04:19:57;;;;;;;0.70;0.70;;;6.30;99.90;;;;;;5020220;28;20041;-77
2023/03/29 04:22:24;;;;;;;0.80;0.80;;;6.30;99.90;;;;;;5017259;28;20137;-77
2023/03/29 04:24:50;;;;;;;0.70;0.70;;;6.40;99.90;;;;;;5011534;28;20912;-76
2023/03/29 04:27:16;;;;;;;0.70;0.70;;;6.40;99.90;;;;;;5016124;28;20494;-76
2023/03/29 04:29:43;;;;;;;0.70;0.70;;;6.40;99.90;;;;;;5017105;28;20080;-77
2023/03/29 04:32:10;;;;;;;0.70;0.70;;;6.40;99.90;;;;;;5017024;28;20125;-76
2023/03/29 04:34:36;;;;;;;0.70;0.70;;;6.40;99.90;;;;;;5015858;28;20554;-76
2023/03/29 04:37:08;;;;;;;0.70;0.70;;;6.30;99.90;;;;;;5015656;28;20080;-77
2023/03/29 04:39:35;;;;;;;0.70;0.70;;;6.30;99.90;;;;;;5015889;28;20726;-77
2023/03/29 04:42:01;;;;;;;0.80;0.80;;;6.30;99.90;;;;;;5017055;28;20038;-76
2023/03/29 04:44:27;;;;;;;0.70;0.70;;;6.20;99.90;;;;;;5014715;28;20045;-77
2023/03/29 04:46:53;;;;;;;0.70;0.70;;;6.20;99.90;;;;;;5019248;28;20044;-77
2023/03/29 04:49:19;;;;;;;0.90;0.90;;;6.20;99.90;;;;;;5016813;28;20756;-76
2023/03/29 04:51:45;;;;;;;0.70;0.70;;;6.20;99.90;;;;;;5017206;28;20037;-76
2023/03/29 04:54:10;;;;;;;0.70;0.70;;;6.20;99.90;;;;;;5011866;28;22468;-77
2023/03/29 04:56:36;;;;;;;0.80;0.80;;;6.20;99.90;;;;;;5013431;28;20041;-76
2023/03/29 04:59:02;;;;;;;0.80;0.80;;;6.20;99.90;;;;;;5010908;28;20049;-77
2023/03/29 05:01:28;;;;;;;0.70;0.70;;;6.10;99.90;;;;;;5002205;28;20297;-77
2023/03/29 05:03:54;;;;;;;0.80;0.80;;;6.10;99.90;;;;;;5003606;28;20045;-77
2023/03/29 05:06:20;;;;;;;0.70;0.70;;;6.20;99.90;;;;;;4999404;28;20049;-77
2023/03/29 05:08:46;;;;;;;0.70;0.70;;;6.10;99.90;;;;;;5003436;28;20049;-77
2023/03/29 05:11:12;;;;;;;0.70;0.70;;;6.10;99.90;;;;;;5003431;28;20052;-77
2023/03/29 05:13:38;;;;;;;0.70;0.70;;;6.10;99.90;;;;;;5014698;28;20071;-76
2023/03/29 05:16:04;;;;;;;0.70;0.70;;;6.10;99.90;;;;;;5011571;28;20053;-77
2023/03/29 05:18:30;;;;;;;0.70;0.70;;;6.20;99.90;;;;;;5006296;28;21275;-77
2023/03/29 05:20:57;;;;;;;0.70;0.70;;;6.10;99.90;;;;;;5010576;28;20042;-77
2023/03/29 05:23:23;;;;;;;0.70;0.70;;;6.20;99.90;;;;;;5000479;28;20153;-77
2023/03/29 05:25:52;;;;;;;0.70;0.70;;;6.20;99.90;;;;;;5013700;28;20041;-77
2023/03/29 05:28:18;;;;;;;0.70;0.70;;;6.20;99.90;;;;;;5000221;28;20048;-77
2023/03/29 05:30:45;;;;;;;0.70;0.70;;;6.20;99.90;;;;;;5015450;28;20041;-77
2023/03/29 05:33:11;;;;;;;0.70;0.70;;;6.10;99.90;;;;;;5017915;28;20045;-77
2023/03/29 05:35:37;;;;;;;0.70;0.70;;;6.20;99.90;;;;;;5012172;28;20111;-76
2023/03/29 05:38:03;;;;;;;0.77;0.77;;;6.10;99.90;;;;;;5016243;28;20662;-76
2023/03/29 05:40:30;;;;;;;0.70;0.70;;;6.10;99.90;;;;;;5015847;28;20160;-77
2023/03/29 05:42:57;;;;;;;0.70;0.70;;;6.10;99.90;;;;;;5015585;28;20057;-76
2023/03/29 05:45:23;;;;;;;0.70;0.70;;;6.10;99.90;;;;;;5014068;28;20525;-77
2023/03/29 05:47:49;;;;;;;0.75;0.75;;;6.20;99.90;;;;;;5014681;28;20048;-76
2023/03/29 05:50:15;;;;;;;0.70;0.70;;;6.10;99.90;;;;;;5014193;28;20106;-77
2023/03/29 05:52:41;;;;;;;0.70;0.70;;;6.20;99.90;;;;;;5014875;28;20041;-77
2023/03/29 05:55:08;;;;;;;0.73;0.73;;;6.10;99.90;;;;;;5010554;28;20052;-76
2023/03/29 05:57:37;;;;;;;0.75;0.75;;;6.20;99.90;;;;;;5010337;28;20049;-76
2023/03/29 06:00:22;;;;;;;0.70;0.70;;;6.20;99.90;;;;;;4999805;28;20065;-76
2023/03/29 06:02:51;;;;;;;0.80;0.80;;;6.10;99.90;;;;;;5013820;28;20055;-77
2023/03/29 06:05:18;;;;;;;0.77;0.77;;;6.20;99.90;;;;;;5010540;28;20558;-76
2023/03/29 06:07:44;;;;;;;0.80;0.80;;;6.20;99.90;;;;;;5011239;28;20045;-76
2023/03/29 06:10:10;;;;;;;0.80;0.80;;;6.30;99.90;;;;;;5011910;28;20081;-77
2023/03/29 06:12:36;;;;;;;0.70;0.70;;;6.30;99.90;;;;;;5013105;28;20144;-77
2023/03/29 06:15:03;;;;;;;0.70;0.70;;;6.30;99.90;;;;;;5009791;28;20042;-77
2023/03/29 06:17:33;;;;;;;0.70;0.70;;;6.20;99.90;;;;;;5014646;28;20483;-76
2023/03/29 06:19:59;;;;;;;0.75;0.75;;;6.30;99.90;;;;;;5016353;28;20386;-77
2023/03/29 06:22:26;;;;;;;0.80;0.80;;;6.20;99.90;;;;;;5013347;28;20121;-78
2023/03/29 06:24:52;;;;;;;0.75;0.75;;;6.40;99.90;;;;;;5011058;28;20148;-77
2023/03/29 06:27:18;;;;;;;0.75;0.75;;;6.30;99.90;;;;;;5013902;28;20588;-78
2023/03/29 06:29:44;;;;;;;0.80;0.80;;;6.30;99.90;;;;;;5015469;28;20092;-77
2023/03/29 06:32:10;;;;;;;0.80;0.80;;;6.40;99.90;;;;;;5014469;28;20115;-76
2023/03/29 06:34:36;;;;;;;0.70;0.70;;;6.40;99.90;;;;;;5013214;28;20049;-77
2023/03/29 06:37:02;;;;;;;0.80;0.80;;;6.40;99.90;;;;;;5018009;28;20045;-77
2023/03/29 06:39:28;;;;;;;0.90;0.90;;;6.50;99.90;;;;;;5018166;28;20073;-77
2023/03/29 06:41:54;;;;;;;0.80;0.80;;;6.50;99.90;;;;;;5020573;28;20051;-76
2023/03/29 06:44:20;;;;;;;0.80;0.80;;;6.60;99.90;;;;;;5017271;28;20041;-77
2023/03/29 06:46:46;;;;;;;0.70;0.70;;;6.50;99.90;;;;;;5018974;28;20095;-77
2023/03/29 06:49:12;;;;;;;0.70;0.70;;;6.60;99.90;;;;;;5019426;28;20045;-78
2023/03/29 06:51:39;;;;;;;0.70;0.70;;;6.60;99.90;;;;;;5020195;28;20081;-79
2023/03/29 06:54:04;;;;;;;0.80;0.80;;;6.70;99.90;;;;;;5017988;28;20046;-77
2023/03/29 06:56:31;;;;;;;0.80;0.80;;;6.60;99.90;;;;;;4998391;28;20058;-77
2023/03/29 06:58:56;;;;;;;0.80;0.80;;;6.80;99.90;;;;;;5018612;28;20041;-77
2023/03/29 07:01:22;;;;;;;0.80;0.80;;;6.90;99.90;;;;;;5018144;28;20132;-77
2023/03/29 07:03:48;;;;;;;0.70;0.70;;;6.90;99.90;;;;;;5017855;28;20050;-77
2023/03/29 07:06:16;;;;;;;0.70;0.70;;;6.80;99.90;;;;;;5017382;28;20100;-77
2023/03/29 07:08:42;;;;;;;0.70;0.70;;;7.00;99.90;;;;;;5018881;28;20041;-77
2023/03/29 07:11:13;;;;;;;0.70;0.70;;;7.00;99.90;;;;;;5019788;28;20040;-76
2023/03/29 07:13:42;;;;;;;0.70;0.70;;;7.10;99.90;;;;;;5021757;28;20056;-77
2023/03/29 07:16:12;;;;;;;0.70;0.70;;;7.00;99.90;;;;;;5018404;28;20041;-77
2023/03/29 07:18:42;;;;;;;0.70;0.70;;;7.10;99.90;;;;;;5021258;28;20501;-76
2023/03/29 07:21:12;;;;;;;0.60;0.60;;;7.20;99.90;;;;;;5021344;28;20044;-77
2023/03/29 07:23:38;;;;;;;0.70;0.70;;;7.30;99.90;;;;;;5019447;28;20107;-77
2023/03/29 07:26:09;;;;;;;0.70;0.70;;;7.20;99.90;;;;;;5014575;28;20041;-76
2023/03/29 07:28:38;;;;;;;0.80;0.80;;;7.30;99.90;;;;;;5019075;28;20080;-77
2023/03/29 07:31:06;;;;;;;0.70;0.70;;;7.40;99.90;;;;;;5019798;28;20048;-77
2023/03/29 07:33:33;;;;;;;0.70;0.70;;;7.30;99.90;;;;;;5020576;28;20063;-77
2023/03/29 07:35:59;;;;;;;0.60;0.60;;;7.40;99.90;;;;;;5015819;28;20045;-76
2023/03/29 07:38:25;;;;;;;0.60;0.60;;;7.50;99.90;;;;;;5021412;28;20413;-76
2023/03/29 07:40:53;;;;;;;0.70;0.70;;;7.50;99.90;;;;;;5036130;28;20041;-76
2023/03/29 07:43:19;;;;;;;0.70;0.70;;;7.60;99.90;;;;;;5018884;28;20049;-77
2023/03/29 07:45:45;;;;;;;0.80;0.80;;;7.50;99.90;;;;;;5016802;28;20041;-78
2023/03/29 07:48:11;;;;;;;0.80;0.80;;;7.60;99.90;;;;;;5019845;28;20095;-76
2023/03/29 07:50:37;;;;;;;0.70;0.70;;;7.60;99.90;;;;;;5019917;28;20121;-76
2023/03/29 07:53:03;;;;;;;0.70;0.70;;;7.70;99.90;;;;;;5009288;28;20053;-77
2023/03/29 07:55:29;;;;;;;0.70;0.70;;;7.70;99.90;;;;;;5010048;28;20057;-77
2023/03/29 07:57:55;;;;;;;0.70;0.70;;;7.70;99.90;;;;;;4998586;28;20049;-77
2023/03/29 08:00:23;;;;;;;0.70;0.70;;;7.80;99.90;;;;;;4986606;28;20048;-77
2023/03/29 08:02:51;;;;;;;0.70;0.70;;;7.80;99.90;;;;;;5014953;28;20442;-77
2023/03/29 08:05:17;;;;;;;0.70;0.70;;;7.90;99.90;;;;;;5010086;28;20546;-77
2023/03/29 08:07:44;;;;;;;0.70;0.70;;;7.90;99.90;;;;;;5012276;28;20136;-77
2023/03/29 08:10:16;;;;;;;0.70;0.70;;;7.90;99.90;;;;;;5006538;28;20050;-77
2023/03/29 08:12:43;;;;;;;0.70;0.70;;;7.90;99.90;;;;;;5024956;28;20509;-77
2023/03/29 08:15:09;;;;;;;0.70;0.70;;;8.00;99.90;;;;;;5018261;28;20045;-77
2023/03/29 08:17:36;;;;;;;0.70;0.70;;;8.00;99.90;;;;;;5019615;28;20095;-77
2023/03/29 08:20:04;;;;;;;0.70;0.70;;;8.10;99.90;;;;;;5017539;28;20051;-77
2023/03/29 08:22:31;;;;;;;0.70;0.70;;;8.10;99.90;;;;;;5016273;28;20105;-77
2023/03/29 08:24:57;;;;;;;0.80;0.80;;;8.10;99.90;;;;;;5017156;28;20049;-77
2023/03/29 08:27:23;;;;;;;0.77;0.77;;;8.20;99.90;;;;;;5018459;28;20053;-77
2023/03/29 08:29:50;;;;;;;0.70;0.70;;;8.30;99.90;;;;;;5017488;28;20045;-78
2023/03/29 08:32:16;;;;;;;0.70;0.70;;;8.30;99.90;;;;;;5018163;28;20053;-77
2023/03/29 08:34:42;;;;;;;0.70;0.70;;;8.40;99.90;;;;;;5015770;28;20052;-77
2023/03/29 08:37:09;;;;;;;0.65;0.65;;;8.50;99.90;;;;;;5018219;28;20402;-77
2023/03/29 08:39:36;;;;;;;0.70;0.70;;;8.60;99.90;;;;;;5019016;28;20077;-77
2023/03/29 08:42:27;;;;;;;0.70;0.70;;;8.60;99.90;;;;;;5016957;28;20531;-77
2023/03/29 08:44:56;;;;;;;0.70;0.70;;;8.60;99.90;;;;;;5016086;28;20048;-77
2023/03/29 08:47:32;;;;;;;0.70;0.70;;;8.70;99.90;;;;;;5017091;28;20042;-77
2023/03/29 08:49:58;;;;;;;0.60;0.60;;;8.70;99.90;;;;;;5019467;28;20041;-77
2023/03/29 08:52:45;;;;;;;0.70;0.70;;;8.80;99.90;;;;;;5017777;28;20064;-79
2023/03/29 08:55:27;;;;;;;0.63;0.63;;;8.90;99.90;;;;;;5013479;28;20478;-77
2023/03/29 08:57:54;;;;;;;0.80;0.80;;;9.00;99.90;;;;;;5018342;28;20041;-77
2023/03/29 09:00:30;;;;;;;0.70;0.70;;;9.00;99.90;;;;;;5019235;28;20053;-77
2023/03/29 09:02:58;;;;;;;0.70;0.70;;;9.10;99.90;;;;;;5016557;28;20040;-77
2023/03/29 09:05:24;;;;;;;0.60;0.60;;;9.30;99.90;;;;;;5031909;28;20125;-77
2023/03/29 09:07:50;;;;;;;0.70;0.70;;;9.30;99.90;;;;;;5014591;28;20041;-76
2023/03/29 09:10:17;;;;;;;0.65;0.65;;;9.30;99.90;;;;;;5016688;28;20038;-76
2023/03/29 09:12:52;;;;;;;0.70;0.70;;;9.40;99.90;;;;;;5018994;28;20124;-77
2023/03/29 09:15:26;;;;;;;0.60;0.60;;;9.60;99.90;;;;;;5016228;28;20445;-77
2023/03/29 09:18:29;;;;;;;0.60;0.60;;;9.60;99.90;;;;;;5018144;28;20045;-77
2023/03/29 09:20:58;;;;;;;0.60;0.60;;;9.70;99.90;;;;;;5016544;28;20043;-77
2023/03/29 09:23:47;;;;;;;0.60;0.60;;;9.70;99.90;;;;;;5018565;28;20048;-77
2023/03/29 09:26:31;;;;;;;0.60;0.60;;;9.80;99.90;;;;;;5016373;28;20131;-77
2023/03/29 09:29:24;;;;;;;0.60;0.60;;;9.90;99.90;;;;;;5017481;28;20716;-77
2023/03/29 09:31:52;;;;;;;0.60;0.60;;;9.90;99.90;;;;;;4998691;28;20065;-77
2023/03/29 09:34:22;;;;;;;0.50;0.50;;;9.90;99.90;;;;;;5012694;28;20966;-77
2023/03/29 09:36:51;;;;;;;0.60;0.60;;;10.00;99.90;;;;;;5016097;28;20828;-77
2023/03/29 09:39:19;;;;;;;0.60;0.60;;;10.10;99.90;;;;;;5016093;28;20049;-77
2023/03/29 09:42:03;;;;;;;0.60;0.60;;;10.20;99.90;;;;;;5032820;28;20345;-77
2023/03/29 09:44:51;;;;;;;0.70;0.70;;;10.40;99.90;;;;;;5012721;28;20496;-77
2023/03/29 09:47:28;;;;;;;0.60;0.60;;;10.40;99.90;;;;;;5023801;28;20120;-77
2023/03/29 09:50:02;;;;;;;0.60;0.60;;;10.50;99.90;;;;;;5017093;28;20509;-77
2023/03/29 09:52:27;;;;;;;0.57;0.57;;;10.70;99.90;;;;;;5009390;28;20057;-77
2023/03/29 09:54:53;;;;;;;0.60;0.60;;;10.60;99.90;;;;;;5003703;28;20056;-77
2023/03/29 09:57:19;;;;;;;0.50;0.50;;;10.70;99.90;;;;;;5017090;28;20371;-77
2023/03/29 09:59:47;;;;;;;0.60;0.60;;;10.70;99.90;;;;;;5016562;28;20045;-77
2023/03/29 10:02:13;;;;;;;0.60;0.60;;;10.70;99.90;;;;;;5018934;28;20737;-77
2023/03/29 10:04:41;;;;;;;0.60;0.60;;;10.80;99.90;;;;;;5013727;28;20664;-77
2023/03/29 10:07:13;;;;;;;0.60;0.60;;;11.00;99.90;;;;;;5017686;28;20037;-77
2023/03/29 10:09:43;;;;;;;0.60;0.60;;;11.00;99.90;;;;;;5000168;28;20773;-77
2023/03/29 10:12:10;;;;;;;0.50;0.50;;;10.90;99.90;;;;;;4997027;28;20934;-78
2023/03/29 10:14:45;;;;;;;0.60;0.60;;;10.80;99.90;;;;;;5013678;28;20684;-77
2023/03/29 10:17:21;;;;;;;0.55;0.55;;;10.80;99.90;;;;;;5011934;28;20077;-76
2023/03/29 10:19:56;;;;;;;0.60;0.60;;;10.70;99.90;;;;;;5017706;28;20042;-77
2023/03/29 10:22:25;;;;;;;0.60;0.60;;;10.70;99.90;;;;;;5016948;28;20112;-77
2023/03/29 10:24:52;;;;;;;0.50;0.50;;;10.90;99.90;;;;;;5013676;28;20136;-77
2023/03/29 10:27:25;;;;;;;0.60;0.60;;;11.10;99.90;;;;;;5009384;28;20258;-77
2023/03/29 10:29:52;;;;;;;0.60;0.60;;;11.30;99.90;;;;;;5016665;28;20120;-78
2023/03/29 10:32:24;;;;;;;0.60;0.60;;;11.30;99.90;;;;;;5014951;28;20056;-77
2023/03/29 10:34:50;;;;;;;0.60;0.60;;;11.30;99.90;;;;;;5015495;28;20584;-77
2023/03/29 10:37:21;;;;;;;0.70;0.70;;;11.40;99.90;;;;;;5015919;28;20072;-78
2023/03/29 10:39:48;;;;;;;0.70;0.70;;;11.40;99.90;;;;;;5015873;28;20608;-75
2023/03/29 10:42:18;;;;;;;0.60;0.60;;;11.30;99.90;;;;;;5016507;28;20712;-75
2023/03/29 10:44:56;;;;;;;0.60;0.60;;;11.60;99.90;;;;;;4996430;28;20057;-78
2023/03/29 10:47:22;;;;;;;0.50;0.50;;;11.70;99.90;;;;;;5014244;28;20049;-77
2023/03/29 10:49:53;;;;;;;0.52;0.52;;;11.80;99.90;;;;;;5018458;28;20061;-77
2023/03/29 10:52:20;;;;;;;0.60;0.60;;;11.70;99.90;;;;;;5017889;28;20044;-77
2023/03/29 10:54:47;;;;;;;0.60;0.60;;;11.80;99.90;;;;;;5014745;28;20550;-78
2023/03/29 10:57:51;;;;;;;0.60;0.60;;;11.90;99.90;;;;;;5013937;28;20156;-78
2023/03/29 11:00:26;;;;;;;0.60;0.60;;;11.90;99.90;;;;;;4993327;28;20050;-77
2023/03/29 11:03:10;;;;;;;0.60;0.60;;;12.10;99.90;;;;;;5014924;28;20037;-77
2023/03/29 11:06:00;;;;;;;0.60;0.60;;;12.30;99.90;;;;;;5012883;28;20049;-77
2023/03/29 11:09:01;;;;;;;0.57;0.57;;;12.30;99.90;;;;;;5005423;28;20045;-76
2023/03/29 11:11:47;;;;;;;0.60;0.60;;;12.20;99.90;;;;;;5010681;28;20061;-75
2023/03/29 11:14:42;;;;;;;0.50;0.50;;;12.20;99.90;;;;;;5014136;28;20053;-78
2023/03/29 11:17:13;;;;;;;;;;;12.60;99.90;;;;;;5015983;28;20115;-77
2023/03/29 11:19:54;;;;;;;0.60;0.60;;;12.70;99.90;;;;;;5014963;28;19930;-78
2023/03/29 11:22:40;;;;;;;0.50;0.50;;;12.80;99.90;;;;;;5017101;28;20223;-77
2023/03/29 11:25:29;;;;;;;0.60;0.60;;;12.90;99.90;;;;;;5016346;28;20060;-78
2023/03/29 11:28:06;;;;;;;0.50;0.50;;;13.10;99.90;;;;;;5018312;28;20048;-77
2023/03/29 11:30:50;;;;;;;0.60;0.60;;;13.20;99.90;;;;;;5020569;28;20519;-78
2023/03/29 11:33:37;;;;;;;0.60;0.60;;;13.20;99.90;;;;;;5019785;28;20077;-77
2023/03/29 11:36:37;;;;;;;0.60;0.60;;;13.20;99.90;;;;;;5017790;28;20045;-80
2023/03/29 11:39:10;;;;;;;0.50;0.50;;;13.30;99.90;;;;;;5016520;28;20120;-78
2023/03/29 11:41:43;;;;;;;0.60;0.60;;;13.50;99.90;;;;;;5019984;28;20071;-77
2023/03/29 11:44:19;;;;;;;0.50;0.50;;;13.60;99.90;;;;;;5017459;28;20057;-77
2023/03/29 11:46:49;;;;;;;0.50;0.50;;;13.60;99.90;;;;;;5019165;28;20041;-78
2023/03/29 11:49:24;;;;;;;0.52;0.52;;;13.40;99.90;;;;;;5017247;28;20045;-78
2023/03/29 11:51:55;;;;;;;0.50;0.50;;;13.60;99.90;;;;;;4996586;28;20053;-78
2023/03/29 11:54:45;;;;;;;0.50;0.50;;;13.70;99.90;;;;;;5014155;28;20041;-77
2023/03/29 11:57:33;;;;;;;0.50;0.50;;;13.80;99.90;;;;;;4995346;28;20053;-77
2023/03/29 12:00:21;;;;;;;0.50;0.50;;;13.90;99.90;;;;;;5008386;28;20049;-78
2023/03/29 12:02:58;;;;;;;0.50;0.50;;;13.80;99.90;;;;;;5007639;28;20954;-78
2023/03/29 12:06:03;;;;;;;0.50;0.50;;;13.90;99.90;;;;;;5008031;28;20061;-77
2023/03/29 12:08:34;;;;;;;;;;;13.70;99.90;;;;;;4997330;28;20921;-78
2023/03/29 12:11:17;;;;;;;0.50;0.50;;;13.90;99.90;;;;;;5004603;28;19925;-78
2023/03/29 12:13:58;;;;;;;0.50;0.50;;;14.20;99.90;;;;;;5000209;28;20137;-78
2023/03/29 12:16:38;;;;;;;0.50;0.50;;;14.60;99.90;;;;;;5004078;28;20147;-78
2023/03/29 12:19:24;;;;;;;0.50;0.50;;;15.20;99.90;;;;;;5004914;28;20064;-78
2023/03/29 12:21:54;;;;;;;0.50;0.50;;;15.50;99.90;;;;;;5002305;28;20590;-78
2023/03/29 12:24:22;;;;;;;0.60;0.60;;;15.00;99.90;;;;;;5022826;28;20124;-78
2023/03/29 12:26:57;;;;;;;0.60;0.60;;;14.80;99.90;;;;;;5015515;28;20549;-78
2023/03/29 12:29:35;;;;;;;0.50;0.50;;;14.90;99.90;;;;;;5017613;28;20095;-77
2023/03/29 12:32:45;;;;;;;0.50;0.50;;;15.10;99.90;;;;;;5015106;28;20048;-78
2023/03/29 12:35:41;;;;;;;0.60;0.60;;;14.90;99.90;;;;;;5012956;28;20037;-78
2023/03/29 12:38:18;;;;;;;0.50;0.50;;;14.70;99.90;;;;;;5015834;28;20042;-78
2023/03/29 12:40:47;;;;;;;0.52;0.52;;;14.50;99.90;;;;;;5015358;28;20049;-78
2023/03/29 12:43:26;;;;;;;0.50;0.50;;;14.70;99.90;;;;;;5013723;28;20496;-78
2023/03/29 12:46:04;;;;;;;0.50;0.50;;;14.80;99.90;;;;;;4992115;28;20037;-78
2023/03/29 12:48:30;;;;;;;0.60;0.60;;;15.10;99.90;;;;;;4987506;28;20064;-77
2023/03/29 12:51:02;;;;;;;0.60;0.60;;;15.00;99.90;;;;;;5015976;28;20044;-78
2023/03/29 12:53:39;;;;;;;0.75;0.75;;;14.90;99.90;;;;;;5018236;28;20095;-78
2023/03/29 12:56:07;;;;;;;0.50;0.50;;;14.80;99.90;;;;;;5024376;28;20041;-77
2023/03/29 12:58:39;;;;;;;0.50;0.50;;;14.50;99.90;;;;;;5014268;28;20108;-78
2023/03/29 13:01:08;;;;;;;0.60;0.60;;;14.50;99.90;;;;;;5014567;28;20474;-78
2023/03/29 13:03:41;;;;;;;0.50;0.50;;;14.40;99.90;;;;;;5015622;28;20058;-78
2023/03/29 13:06:10;;;;;;;0.50;0.50;;;14.30;99.90;;;;;;5010665;28;20397;-78
2023/03/29 13:08:40;;;;;;;0.50;0.50;;;14.20;99.90;;;;;;5013633;28;20116;-78
2023/03/29 13:11:12;;;;;;;0.52;0.52;;;14.00;99.90;;;;;;5016247;28;20490;-77
2023/03/29 13:13:40;;;;;;;0.50;0.50;;;13.70;99.90;;;;;;5017222;28;20041;-78
2023/03/29 13:16:15;;;;;;;0.50;0.50;;;13.60;99.90;;;;;;5011870;28;20685;-77